Atalissa, Iowa
Current Conditions -  °F | °C
As of 10:35 AM on Sunday 21 Dec 2014 (Local Time) from KMUT Reporting Station
Overcast Overcast  
Wind Chill: 32°   Ceiling: 2400
Heat Index: 39°   Visibility: 10mi
Dew Point: 34°   Wind: 13mph
Humidity: 81%   Direction: 160°SSE
Pressure: 30.08"   Gusts: NA
Location:  41.57°N, 91.17°W
Report Text: KMUT 211635Z AUTO 16011KT 10SM OVC024 04/01 A3008 RMK AO2
Loading
Personal Weather Stations






























Interactive Weather Map New forecast layout! Learn more

10-Day Weather Forecast

Advertisements
Track Severe Weather on mobile